sensor_id;sensor_type;location;lat;lon;timestamp;P1;durP1;ratioP1;P2;durP2;ratioP2
13040;SDS011;6587;42.728;23.288;2023-08-21T00:00:49;9.40;;;7.38;;
13040;SDS011;6587;42.728;23.288;2023-08-21T00:03:17;8.20;;;7.27;;
13040;SDS011;6587;42.728;23.288;2023-08-21T00:05:44;8.60;;;7.20;;
13040;SDS011;6587;42.728;23.288;2023-08-21T00:08:10;11.20;;;7.27;;
13040;SDS011;6587;42.728;23.288;2023-08-21T00:10:37;10.70;;;8.17;;
13040;SDS011;6587;42.728;23.288;2023-08-21T00:13:04;11.55;;;7.30;;
13040;SDS011;6587;42.728;23.288;2023-08-21T00:15:31;9.50;;;7.70;;
13040;SDS011;6587;42.728;23.288;2023-08-21T00:17:57;15.38;;;7.50;;
13040;SDS011;6587;42.728;23.288;2023-08-21T00:20:27;9.32;;;7.75;;
13040;SDS011;6587;42.728;23.288;2023-08-21T00:22:53;10.17;;;7.20;;
13040;SDS011;6587;42.728;23.288;2023-08-21T00:25:20;8.65;;;7.28;;
13040;SDS011;6587;42.728;23.288;2023-08-21T00:27:47;7.70;;;6.97;;
13040;SDS011;6587;42.728;23.288;2023-08-21T00:30:14;8.77;;;6.90;;
13040;SDS011;6587;42.728;23.288;2023-08-21T00:32:41;9.70;;;7.35;;
13040;SDS011;6587;42.728;23.288;2023-08-21T00:35:08;9.03;;;6.73;;
13040;SDS011;6587;42.728;23.288;2023-08-21T00:37:36;9.20;;;7.13;;
13040;SDS011;6587;42.728;23.288;2023-08-21T00:40:03;10.10;;;7.77;;
13040;SDS011;6587;42.728;23.288;2023-08-21T00:42:29;10.07;;;8.20;;
13040;SDS011;6587;42.728;23.288;2023-08-21T00:44:56;9.85;;;7.80;;
13040;SDS011;6587;42.728;23.288;2023-08-21T00:47:23;13.00;;;8.00;;
13040;SDS011;6587;42.728;23.288;2023-08-21T00:49:49;9.60;;;7.50;;
13040;SDS011;6587;42.728;23.288;2023-08-21T00:52:16;11.60;;;8.00;;
13040;SDS011;6587;42.728;23.288;2023-08-21T00:54:46;9.83;;;7.17;;
13040;SDS011;6587;42.728;23.288;2023-08-21T00:57:13;9.87;;;7.53;;
13040;SDS011;6587;42.728;23.288;2023-08-21T00:59:40;10.82;;;7.43;;
13040;SDS011;6587;42.728;23.288;2023-08-21T01:02:07;10.20;;;8.10;;
13040;SDS011;6587;42.728;23.288;2023-08-21T01:04:33;8.10;;;7.20;;
13040;SDS011;6587;42.728;23.288;2023-08-21T01:07:00;10.30;;;7.70;;
13040;SDS011;6587;42.728;23.288;2023-08-21T01:09:29;9.17;;;7.87;;
13040;SDS011;6587;42.728;23.288;2023-08-21T01:12:01;11.32;;;7.75;;
13040;SDS011;6587;42.728;23.288;2023-08-21T01:14:31;9.60;;;7.30;;
13040;SDS011;6587;42.728;23.288;2023-08-21T01:17:00;8.93;;;7.57;;
13040;SDS011;6587;42.728;23.288;2023-08-21T01:19:30;9.90;;;7.80;;
13040;SDS011;6587;42.728;23.288;2023-08-21T01:21:58;10.07;;;7.70;;
13040;SDS011;6587;42.728;23.288;2023-08-21T01:24:26;9.23;;;7.10;;
13040;SDS011;6587;42.728;23.288;2023-08-21T01:26:53;10.13;;;7.93;;
13040;SDS011;6587;42.728;23.288;2023-08-21T01:29:19;10.67;;;8.40;;
13040;SDS011;6587;42.728;23.288;2023-08-21T01:31:46;11.30;;;8.63;;
13040;SDS011;6587;42.728;23.288;2023-08-21T01:34:14;11.00;;;8.40;;
13040;SDS011;6587;42.728;23.288;2023-08-21T01:36:42;11.63;;;8.53;;
13040;SDS011;6587;42.728;23.288;2023-08-21T01:39:09;13.57;;;8.70;;
13040;SDS011;6587;42.728;23.288;2023-08-21T01:41:38;10.23;;;8.60;;
13040;SDS011;6587;42.728;23.288;2023-08-21T01:44:05;9.97;;;7.93;;
13040;SDS011;6587;42.728;23.288;2023-08-21T01:46:32;10.93;;;7.93;;
13040;SDS011;6587;42.728;23.288;2023-08-21T01:48:59;9.17;;;8.10;;
13040;SDS011;6587;42.728;23.288;2023-08-21T01:51:25;9.30;;;8.00;;
13040;SDS011;6587;42.728;23.288;2023-08-21T01:53:52;10.03;;;8.33;;
13040;SDS011;6587;42.728;23.288;2023-08-21T01:56:19;9.50;;;8.23;;
13040;SDS011;6587;42.728;23.288;2023-08-21T01:58:47;12.73;;;8.03;;
13040;SDS011;6587;42.728;23.288;2023-08-21T02:01:13;11.07;;;7.77;;
13040;SDS011;6587;42.728;23.288;2023-08-21T02:03:40;11.67;;;8.13;;
13040;SDS011;6587;42.728;23.288;2023-08-21T02:06:07;11.03;;;7.57;;
13040;SDS011;6587;42.728;23.288;2023-08-21T02:08:33;12.70;;;8.37;;
13040;SDS011;6587;42.728;23.288;2023-08-21T02:11:00;11.57;;;8.23;;
13040;SDS011;6587;42.728;23.288;2023-08-21T02:13:27;8.80;;;7.90;;
13040;SDS011;6587;42.728;23.288;2023-08-21T02:15:55;13.50;;;8.27;;
13040;SDS011;6587;42.728;23.288;2023-08-21T02:18:21;13.67;;;8.67;;
13040;SDS011;6587;42.728;23.288;2023-08-21T02:20:48;10.50;;;7.93;;
13040;SDS011;6587;42.728;23.288;2023-08-21T02:23:15;13.10;;;8.67;;
13040;SDS011;6587;42.728;23.288;2023-08-21T02:25:42;12.13;;;7.77;;
13040;SDS011;6587;42.728;23.288;2023-08-21T02:28:09;10.63;;;7.87;;
13040;SDS011;6587;42.728;23.288;2023-08-21T02:30:39;10.20;;;7.93;;
13040;SDS011;6587;42.728;23.288;2023-08-21T02:33:07;19.60;;;9.27;;
13040;SDS011;6587;42.728;23.288;2023-08-21T02:35:34;14.07;;;7.90;;
13040;SDS011;6587;42.728;23.288;2023-08-21T02:38:01;12.60;;;8.30;;
13040;SDS011;6587;42.728;23.288;2023-08-21T02:40:27;10.27;;;8.00;;
13040;SDS011;6587;42.728;23.288;2023-08-21T02:42:54;9.50;;;8.50;;
13040;SDS011;6587;42.728;23.288;2023-08-21T02:45:21;18.93;;;9.27;;
13040;SDS011;6587;42.728;23.288;2023-08-21T02:47:47;14.83;;;8.83;;
13040;SDS011;6587;42.728;23.288;2023-08-21T02:50:15;15.00;;;8.47;;
13040;SDS011;6587;42.728;23.288;2023-08-21T02:52:42;15.20;;;9.03;;
13040;SDS011;6587;42.728;23.288;2023-08-21T02:55:08;13.50;;;8.30;;
13040;SDS011;6587;42.728;23.288;2023-08-21T02:57:35;13.13;;;8.03;;
13040;SDS011;6587;42.728;23.288;2023-08-21T03:00:02;24.90;;;9.90;;
13040;SDS011;6587;42.728;23.288;2023-08-21T03:02:29;12.93;;;8.10;;
13040;SDS011;6587;42.728;23.288;2023-08-21T03:04:56;10.07;;;8.87;;
13040;SDS011;6587;42.728;23.288;2023-08-21T03:07:25;12.23;;;8.67;;
13040;SDS011;6587;42.728;23.288;2023-08-21T03:09:53;12.97;;;7.90;;
13040;SDS011;6587;42.728;23.288;2023-08-21T03:12:19;14.20;;;8.07;;
13040;SDS011;6587;42.728;23.288;2023-08-21T03:14:47;12.17;;;8.50;;
13040;SDS011;6587;42.728;23.288;2023-08-21T03:17:13;13.30;;;8.50;;
13040;SDS011;6587;42.728;23.288;2023-08-21T03:19:40;9.30;;;8.13;;
13040;SDS011;6587;42.728;23.288;2023-08-21T03:22:07;12.17;;;8.17;;
13040;SDS011;6587;42.728;23.288;2023-08-21T03:24:35;11.83;;;8.80;;
13040;SDS011;6587;42.728;23.288;2023-08-21T03:27:01;10.93;;;8.30;;
13040;SDS011;6587;42.728;23.288;2023-08-21T03:29:28;11.27;;;8.47;;
13040;SDS011;6587;42.728;23.288;2023-08-21T03:31:55;10.93;;;8.27;;
13040;SDS011;6587;42.728;23.288;2023-08-21T03:34:22;13.23;;;9.20;;
13040;SDS011;6587;42.728;23.288;2023-08-21T03:36:53;15.93;;;9.03;;
13040;SDS011;6587;42.728;23.288;2023-08-21T03:39:20;13.23;;;9.07;;
13040;SDS011;6587;42.728;23.288;2023-08-21T03:41:48;10.73;;;8.47;;
13040;SDS011;6587;42.728;23.288;2023-08-21T03:44:15;12.43;;;8.83;;
13040;SDS011;6587;42.728;23.288;2023-08-21T03:46:42;10.30;;;9.17;;
13040;SDS011;6587;42.728;23.288;2023-08-21T03:49:09;10.30;;;8.67;;
13040;SDS011;6587;42.728;23.288;2023-08-21T03:51:36;12.90;;;8.90;;
13040;SDS011;6587;42.728;23.288;2023-08-21T03:54:03;11.23;;;8.40;;
13040;SDS011;6587;42.728;23.288;2023-08-21T03:56:30;11.83;;;8.77;;
13040;SDS011;6587;42.728;23.288;2023-08-21T03:58:58;14.90;;;9.03;;
13040;SDS011;6587;42.728;23.288;2023-08-21T04:01:25;14.33;;;8.80;;
13040;SDS011;6587;42.728;23.288;2023-08-21T04:03:51;13.70;;;8.93;;
13040;SDS011;6587;42.728;23.288;2023-08-21T04:06:18;13.37;;;9.83;;
13040;SDS011;6587;42.728;23.288;2023-08-21T04:08:45;15.07;;;9.73;;
13040;SDS011;6587;42.728;23.288;2023-08-21T04:11:11;16.63;;;9.57;;
13040;SDS011;6587;42.728;23.288;2023-08-21T04:13:38;15.47;;;9.63;;
13040;SDS011;6587;42.728;23.288;2023-08-21T04:16:06;16.03;;;10.50;;
13040;SDS011;6587;42.728;23.288;2023-08-21T04:18:33;16.53;;;9.97;;
13040;SDS011;6587;42.728;23.288;2023-08-21T04:21:02;20.77;;;11.40;;
13040;SDS011;6587;42.728;23.288;2023-08-21T04:23:28;17.80;;;10.03;;
13040;SDS011;6587;42.728;23.288;2023-08-21T04:25:59;15.43;;;9.93;;
13040;SDS011;6587;42.728;23.288;2023-08-21T04:28:26;18.43;;;9.77;;
13040;SDS011;6587;42.728;23.288;2023-08-21T04:30:52;14.93;;;10.63;;
13040;SDS011;6587;42.728;23.288;2023-08-21T04:33:20;19.73;;;11.47;;
13040;SDS011;6587;42.728;23.288;2023-08-21T04:35:47;18.63;;;10.83;;
13040;SDS011;6587;42.728;23.288;2023-08-21T04:38:14;18.70;;;10.70;;
13040;SDS011;6587;42.728;23.288;2023-08-21T04:40:41;22.87;;;11.10;;
13040;SDS011;6587;42.728;23.288;2023-08-21T04:43:07;20.30;;;10.83;;
13040;SDS011;6587;42.728;23.288;2023-08-21T04:45:34;16.83;;;11.57;;
13040;SDS011;6587;42.728;23.288;2023-08-21T04:48:03;16.40;;;9.97;;
13040;SDS011;6587;42.728;23.288;2023-08-21T04:50:31;13.37;;;9.13;;
13040;SDS011;6587;42.728;23.288;2023-08-21T04:52:58;12.57;;;8.90;;
13040;SDS011;6587;42.728;23.288;2023-08-21T04:55:25;14.77;;;10.20;;
13040;SDS011;6587;42.728;23.288;2023-08-21T04:57:52;18.63;;;10.90;;
13040;SDS011;6587;42.728;23.288;2023-08-21T05:00:22;13.63;;;10.03;;
13040;SDS011;6587;42.728;23.288;2023-08-21T05:02:48;14.17;;;10.00;;
13040;SDS011;6587;42.728;23.288;2023-08-21T05:05:15;16.20;;;10.83;;
13040;SDS011;6587;42.728;23.288;2023-08-21T05:07:44;14.57;;;10.67;;
13040;SDS011;6587;42.728;23.288;2023-08-21T05:10:11;13.83;;;9.30;;
13040;SDS011;6587;42.728;23.288;2023-08-21T05:12:39;11.13;;;8.83;;
13040;SDS011;6587;42.728;23.288;2023-08-21T05:15:06;13.00;;;8.53;;
13040;SDS011;6587;42.728;23.288;2023-08-21T05:17:33;10.27;;;8.73;;
13040;SDS011;6587;42.728;23.288;2023-08-21T05:19:59;14.20;;;9.10;;
13040;SDS011;6587;42.728;23.288;2023-08-21T05:22:26;16.63;;;10.00;;
13040;SDS011;6587;42.728;23.288;2023-08-21T05:24:54;12.67;;;8.47;;
13040;SDS011;6587;42.728;23.288;2023-08-21T05:27:21;13.23;;;8.20;;
13040;SDS011;6587;42.728;23.288;2023-08-21T05:29:48;13.27;;;8.90;;
13040;SDS011;6587;42.728;23.288;2023-08-21T05:32:16;12.53;;;9.63;;
13040;SDS011;6587;42.728;23.288;2023-08-21T05:34:44;16.77;;;12.23;;
13040;SDS011;6587;42.728;23.288;2023-08-21T05:37:11;17.10;;;9.33;;
13040;SDS011;6587;42.728;23.288;2023-08-21T05:39:40;15.30;;;9.47;;
13040;SDS011;6587;42.728;23.288;2023-08-21T05:42:08;17.07;;;10.07;;
13040;SDS011;6587;42.728;23.288;2023-08-21T05:44:35;16.90;;;9.23;;
13040;SDS011;6587;42.728;23.288;2023-08-21T05:47:02;17.00;;;9.63;;
13040;SDS011;6587;42.728;23.288;2023-08-21T05:49:28;18.20;;;9.73;;
13040;SDS011;6587;42.728;23.288;2023-08-21T05:51:55;17.17;;;9.38;;
13040;SDS011;6587;42.728;23.288;2023-08-21T05:54:24;17.27;;;9.20;;
13040;SDS011;6587;42.728;23.288;2023-08-21T05:56:51;16.37;;;9.23;;
13040;SDS011;6587;42.728;23.288;2023-08-21T05:59:27;16.95;;;9.52;;
13040;SDS011;6587;42.728;23.288;2023-08-21T06:01:55;13.75;;;8.85;;
13040;SDS011;6587;42.728;23.288;2023-08-21T06:04:22;13.00;;;8.77;;
13040;SDS011;6587;42.728;23.288;2023-08-21T06:06:54;15.27;;;8.80;;
13040;SDS011;6587;42.728;23.288;2023-08-21T06:09:21;15.73;;;9.25;;
13040;SDS011;6587;42.728;23.288;2023-08-21T06:11:48;11.98;;;9.18;;
13040;SDS011;6587;42.728;23.288;2023-08-21T06:14:14;14.13;;;8.48;;
13040;SDS011;6587;42.728;23.288;2023-08-21T06:16:43;13.60;;;8.93;;
13040;SDS011;6587;42.728;23.288;2023-08-21T06:19:10;12.50;;;8.43;;
13040;SDS011;6587;42.728;23.288;2023-08-21T06:21:37;14.35;;;8.50;;
13040;SDS011;6587;42.728;23.288;2023-08-21T06:24:04;10.38;;;7.95;;
13040;SDS011;6587;42.728;23.288;2023-08-21T06:26:30;13.95;;;8.65;;
13040;SDS011;6587;42.728;23.288;2023-08-21T06:28:57;11.32;;;8.30;;
13040;SDS011;6587;42.728;23.288;2023-08-21T06:31:24;15.75;;;8.88;;
13040;SDS011;6587;42.728;23.288;2023-08-21T06:33:52;12.57;;;8.95;;
13040;SDS011;6587;42.728;23.288;2023-08-21T06:36:18;10.05;;;8.25;;
13040;SDS011;6587;42.728;23.288;2023-08-21T06:38:45;14.57;;;8.23;;
13040;SDS011;6587;42.728;23.288;2023-08-21T06:41:12;10.50;;;7.93;;
13040;SDS011;6587;42.728;23.288;2023-08-21T06:43:38;11.43;;;7.82;;
13040;SDS011;6587;42.728;23.288;2023-08-21T06:46:05;12.38;;;8.23;;
13040;SDS011;6587;42.728;23.288;2023-08-21T06:48:32;13.70;;;8.32;;
13040;SDS011;6587;42.728;23.288;2023-08-21T06:51:00;11.50;;;8.23;;
13040;SDS011;6587;42.728;23.288;2023-08-21T06:53:27;10.02;;;8.30;;
13040;SDS011;6587;42.728;23.288;2023-08-21T06:55:54;13.00;;;8.07;;
13040;SDS011;6587;42.728;23.288;2023-08-21T06:58:21;11.77;;;7.53;;
13040;SDS011;6587;42.728;23.288;2023-08-21T07:00:48;9.93;;;7.20;;
13040;SDS011;6587;42.728;23.288;2023-08-21T07:03:15;13.18;;;8.02;;
13040;SDS011;6587;42.728;23.288;2023-08-21T07:05:45;10.15;;;7.25;;
13040;SDS011;6587;42.728;23.288;2023-08-21T07:08:13;21.02;;;7.78;;
13040;SDS011;6587;42.728;23.288;2023-08-21T07:10:40;9.60;;;7.47;;
13040;SDS011;6587;42.728;23.288;2023-08-21T07:13:06;12.68;;;7.82;;
13040;SDS011;6587;42.728;23.288;2023-08-21T07:15:33;13.05;;;8.07;;
13040;SDS011;6587;42.728;23.288;2023-08-21T07:18:00;10.20;;;7.75;;
13040;SDS011;6587;42.728;23.288;2023-08-21T07:20:26;12.35;;;7.07;;
13040;SDS011;6587;42.728;23.288;2023-08-21T07:22:53;8.93;;;7.28;;
13040;SDS011;6587;42.728;23.288;2023-08-21T07:25:21;8.98;;;7.75;;
13040;SDS011;6587;42.728;23.288;2023-08-21T07:27:47;7.90;;;6.32;;
13040;SDS011;6587;42.728;23.288;2023-08-21T07:30:16;9.57;;;7.35;;
13040;SDS011;6587;42.728;23.288;2023-08-21T07:32:43;9.95;;;7.13;;
13040;SDS011;6587;42.728;23.288;2023-08-21T07:35:09;8.00;;;6.72;;
13040;SDS011;6587;42.728;23.288;2023-08-21T07:37:36;11.00;;;7.13;;
13040;SDS011;6587;42.728;23.288;2023-08-21T07:40:02;9.00;;;6.82;;
13040;SDS011;6587;42.728;23.288;2023-08-21T07:42:31;9.38;;;7.43;;
13040;SDS011;6587;42.728;23.288;2023-08-21T07:44:58;8.05;;;6.75;;
13040;SDS011;6587;42.728;23.288;2023-08-21T07:47:26;9.52;;;6.60;;
13040;SDS011;6587;42.728;23.288;2023-08-21T07:49:53;9.23;;;7.03;;
13040;SDS011;6587;42.728;23.288;2023-08-21T07:52:19;7.82;;;7.03;;
13040;SDS011;6587;42.728;23.288;2023-08-21T07:54:46;8.00;;;7.00;;
13040;SDS011;6587;42.728;23.288;2023-08-21T07:57:13;9.80;;;6.57;;
13040;SDS011;6587;42.728;23.288;2023-08-21T07:59:41;12.02;;;7.13;;
13040;SDS011;6587;42.728;23.288;2023-08-21T08:02:07;7.25;;;6.40;;
13040;SDS011;6587;42.728;23.288;2023-08-21T08:04:35;11.48;;;7.15;;
13040;SDS011;6587;42.728;23.288;2023-08-21T08:07:01;7.80;;;6.53;;
13040;SDS011;6587;42.728;23.288;2023-08-21T08:09:28;7.60;;;6.78;;
13040;SDS011;6587;42.728;23.288;2023-08-21T08:11:55;10.15;;;6.68;;
13040;SDS011;6587;42.728;23.288;2023-08-21T08:14:21;13.63;;;7.43;;
13040;SDS011;6587;42.728;23.288;2023-08-21T08:16:49;9.52;;;7.00;;
13040;SDS011;6587;42.728;23.288;2023-08-21T08:19:16;7.38;;;5.95;;
13040;SDS011;6587;42.728;23.288;2023-08-21T08:21:42;8.23;;;6.57;;
13040;SDS011;6587;42.728;23.288;2023-08-21T08:24:09;11.82;;;7.20;;
13040;SDS011;6587;42.728;23.288;2023-08-21T08:26:36;9.93;;;7.15;;
13040;SDS011;6587;42.728;23.288;2023-08-21T08:29:03;8.82;;;6.78;;
13040;SDS011;6587;42.728;23.288;2023-08-21T08:31:30;8.70;;;6.95;;
13040;SDS011;6587;42.728;23.288;2023-08-21T08:33:58;9.75;;;7.10;;
13040;SDS011;6587;42.728;23.288;2023-08-21T08:36:25;9.10;;;7.18;;
13040;SDS011;6587;42.728;23.288;2023-08-21T08:38:51;12.10;;;6.90;;
13040;SDS011;6587;42.728;23.288;2023-08-21T08:41:20;7.22;;;6.57;;
13040;SDS011;6587;42.728;23.288;2023-08-21T08:43:50;7.45;;;6.65;;
13040;SDS011;6587;42.728;23.288;2023-08-21T08:46:17;8.77;;;6.15;;
13040;SDS011;6587;42.728;23.288;2023-08-21T08:48:44;8.55;;;7.40;;
13040;SDS011;6587;42.728;23.288;2023-08-21T08:51:12;7.72;;;6.93;;
13040;SDS011;6587;42.728;23.288;2023-08-21T08:53:38;7.50;;;6.78;;
13040;SDS011;6587;42.728;23.288;2023-08-21T08:56:05;10.27;;;7.32;;
13040;SDS011;6587;42.728;23.288;2023-08-21T08:58:32;6.82;;;6.05;;
13040;SDS011;6587;42.728;23.288;2023-08-21T09:00:59;8.20;;;6.80;;
13040;SDS011;6587;42.728;23.288;2023-08-21T09:03:25;11.05;;;6.93;;
13040;SDS011;6587;42.728;23.288;2023-08-21T09:05:52;10.75;;;6.75;;
13040;SDS011;6587;42.728;23.288;2023-08-21T09:08:20;7.72;;;5.93;;
13040;SDS011;6587;42.728;23.288;2023-08-21T09:10:48;9.63;;;5.78;;
13040;SDS011;6587;42.728;23.288;2023-08-21T09:13:15;7.18;;;6.43;;
13040;SDS011;6587;42.728;23.288;2023-08-21T09:15:42;10.00;;;6.63;;
13040;SDS011;6587;42.728;23.288;2023-08-21T09:18:10;7.10;;;6.38;;
13040;SDS011;6587;42.728;23.288;2023-08-21T09:20:36;10.40;;;6.30;;
13040;SDS011;6587;42.728;23.288;2023-08-21T09:23:03;7.80;;;7.07;;
13040;SDS011;6587;42.728;23.288;2023-08-21T09:25:34;8.00;;;6.53;;
13040;SDS011;6587;42.728;23.288;2023-08-21T09:28:04;9.18;;;5.88;;
13040;SDS011;6587;42.728;23.288;2023-08-21T09:30:35;8.93;;;6.35;;
13040;SDS011;6587;42.728;23.288;2023-08-21T09:33:09;8.75;;;6.20;;
13040;SDS011;6587;42.728;23.288;2023-08-21T09:35:35;8.25;;;6.20;;
13040;SDS011;6587;42.728;23.288;2023-08-21T09:38:02;11.30;;;6.28;;
13040;SDS011;6587;42.728;23.288;2023-08-21T09:40:30;7.13;;;6.35;;
13040;SDS011;6587;42.728;23.288;2023-08-21T09:42:58;9.07;;;6.50;;
13040;SDS011;6587;42.728;23.288;2023-08-21T09:45:25;7.00;;;6.22;;
13040;SDS011;6587;42.728;23.288;2023-08-21T09:47:52;7.45;;;6.25;;
13040;SDS011;6587;42.728;23.288;2023-08-21T09:50:19;6.53;;;5.82;;
13040;SDS011;6587;42.728;23.288;2023-08-21T09:52:46;7.57;;;6.20;;
13040;SDS011;6587;42.728;23.288;2023-08-21T09:55:13;7.00;;;6.10;;
13040;SDS011;6587;42.728;23.288;2023-08-21T09:57:40;7.40;;;5.85;;
13040;SDS011;6587;42.728;23.288;2023-08-21T10:00:09;5.80;;;5.28;;
13040;SDS011;6587;42.728;23.288;2023-08-21T10:02:41;10.65;;;6.28;;
13040;SDS011;6587;42.728;23.288;2023-08-21T10:05:08;7.07;;;5.88;;
13040;SDS011;6587;42.728;23.288;2023-08-21T10:07:36;8.65;;;5.65;;
13040;SDS011;6587;42.728;23.288;2023-08-21T10:10:03;8.45;;;6.15;;
13040;SDS011;6587;42.728;23.288;2023-08-21T10:12:30;7.75;;;5.78;;
13040;SDS011;6587;42.728;23.288;2023-08-21T10:14:56;6.20;;;5.60;;
13040;SDS011;6587;42.728;23.288;2023-08-21T10:17:24;8.55;;;5.82;;
13040;SDS011;6587;42.728;23.288;2023-08-21T10:19:51;7.20;;;5.75;;
13040;SDS011;6587;42.728;23.288;2023-08-21T10:25:00;6.35;;;5.75;;
13040;SDS011;6587;42.728;23.288;2023-08-21T10:27:29;9.77;;;5.88;;
13040;SDS011;6587;42.728;23.288;2023-08-21T10:29:59;6.82;;;5.57;;
13040;SDS011;6587;42.728;23.288;2023-08-21T10:32:27;5.65;;;5.15;;
13040;SDS011;6587;42.728;23.288;2023-08-21T10:34:53;6.47;;;5.60;;
13040;SDS011;6587;42.728;23.288;2023-08-21T10:37:20;6.53;;;5.82;;
13040;SDS011;6587;42.728;23.288;2023-08-21T10:39:54;6.43;;;5.82;;
13040;SDS011;6587;42.728;23.288;2023-08-21T10:42:21;7.78;;;6.60;;
13040;SDS011;6587;42.728;23.288;2023-08-21T10:45:06;6.53;;;5.70;;
13040;SDS011;6587;42.728;23.288;2023-08-21T10:47:37;6.10;;;5.60;;
13040;SDS011;6587;42.728;23.288;2023-08-21T10:50:04;8.23;;;5.22;;
13040;SDS011;6587;42.728;23.288;2023-08-21T10:52:31;7.47;;;5.20;;
13040;SDS011;6587;42.728;23.288;2023-08-21T10:55:00;8.85;;;5.68;;
13040;SDS011;6587;42.728;23.288;2023-08-21T10:57:31;7.65;;;5.57;;
13040;SDS011;6587;42.728;23.288;2023-08-21T10:59:59;8.10;;;5.43;;
13040;SDS011;6587;42.728;23.288;2023-08-21T11:02:26;6.82;;;5.38;;
13040;SDS011;6587;42.728;23.288;2023-08-21T11:04:55;7.28;;;5.63;;
13040;SDS011;6587;42.728;23.288;2023-08-21T11:07:22;5.82;;;5.07;;
13040;SDS011;6587;42.728;23.288;2023-08-21T11:09:49;6.20;;;5.43;;
13040;SDS011;6587;42.728;23.288;2023-08-21T11:12:16;6.70;;;5.40;;
13040;SDS011;6587;42.728;23.288;2023-08-21T11:14:43;7.68;;;5.40;;
13040;SDS011;6587;42.728;23.288;2023-08-21T11:17:10;7.38;;;5.00;;
13040;SDS011;6587;42.728;23.288;2023-08-21T11:19:37;8.20;;;5.68;;
13040;SDS011;6587;42.728;23.288;2023-08-21T11:22:05;7.75;;;5.45;;
13040;SDS011;6587;42.728;23.288;2023-08-21T11:24:39;6.22;;;5.68;;
13040;SDS011;6587;42.728;23.288;2023-08-21T11:27:06;6.30;;;5.07;;
13040;SDS011;6587;42.728;23.288;2023-08-21T11:29:35;13.10;;;5.50;;
13040;SDS011;6587;42.728;23.288;2023-08-21T11:32:02;8.60;;;5.03;;
13040;SDS011;6587;42.728;23.288;2023-08-21T11:34:29;5.97;;;5.38;;
13040;SDS011;6587;42.728;23.288;2023-08-21T11:36:58;6.50;;;5.75;;
13040;SDS011;6587;42.728;23.288;2023-08-21T11:39:27;10.90;;;5.13;;
13040;SDS011;6587;42.728;23.288;2023-08-21T11:41:55;5.88;;;5.32;;
13040;SDS011;6587;42.728;23.288;2023-08-21T11:44:22;6.90;;;4.95;;
13040;SDS011;6587;42.728;23.288;2023-08-21T11:46:50;6.22;;;5.00;;
13040;SDS011;6587;42.728;23.288;2023-08-21T11:49:17;7.30;;;5.18;;
13040;SDS011;6587;42.728;23.288;2023-08-21T11:51:44;7.97;;;5.28;;
13040;SDS011;6587;42.728;23.288;2023-08-21T11:54:11;6.22;;;5.60;;
13040;SDS011;6587;42.728;23.288;2023-08-21T11:56:39;6.25;;;4.90;;
13040;SDS011;6587;42.728;23.288;2023-08-21T11:59:08;6.45;;;4.88;;
13040;SDS011;6587;42.728;23.288;2023-08-21T12:01:34;5.95;;;5.30;;
13040;SDS011;6587;42.728;23.288;2023-08-21T12:04:01;6.05;;;4.85;;
13040;SDS011;6587;42.728;23.288;2023-08-21T12:06:27;5.63;;;4.70;;
13040;SDS011;6587;42.728;23.288;2023-08-21T12:08:57;5.95;;;5.20;;
13040;SDS011;6587;42.728;23.288;2023-08-21T12:11:25;6.10;;;5.00;;
13040;SDS011;6587;42.728;23.288;2023-08-21T12:13:53;6.15;;;5.22;;
13040;SDS011;6587;42.728;23.288;2023-08-21T12:16:20;9.00;;;5.95;;
13040;SDS011;6587;42.728;23.288;2023-08-21T12:18:46;13.50;;;5.88;;
13040;SDS011;6587;42.728;23.288;2023-08-21T12:21:13;10.48;;;5.22;;
13040;SDS011;6587;42.728;23.288;2023-08-21T12:23:40;8.88;;;5.22;;
13040;SDS011;6587;42.728;23.288;2023-08-21T12:26:07;6.43;;;5.00;;
13040;SDS011;6587;42.728;23.288;2023-08-21T12:28:33;5.57;;;5.00;;
13040;SDS011;6587;42.728;23.288;2023-08-21T12:31:01;6.53;;;5.35;;
13040;SDS011;6587;42.728;23.288;2023-08-21T12:33:28;8.68;;;5.22;;
13040;SDS011;6587;42.728;23.288;2023-08-21T12:35:54;6.80;;;5.25;;
13040;SDS011;6587;42.728;23.288;2023-08-21T12:38:21;6.07;;;5.50;;
13040;SDS011;6587;42.728;23.288;2023-08-21T12:40:50;6.82;;;5.25;;
13040;SDS011;6587;42.728;23.288;2023-08-21T12:43:16;7.00;;;5.18;;
13040;SDS011;6587;42.728;23.288;2023-08-21T12:45:43;8.68;;;5.43;;
13040;SDS011;6587;42.728;23.288;2023-08-21T12:48:11;5.68;;;5.00;;
13040;SDS011;6587;42.728;23.288;2023-08-21T12:50:38;5.80;;;5.28;;
13040;SDS011;6587;42.728;23.288;2023-08-21T12:53:05;8.90;;;4.90;;
13040;SDS011;6587;42.728;23.288;2023-08-21T12:55:31;6.43;;;5.10;;
13040;SDS011;6587;42.728;23.288;2023-08-21T12:57:58;6.80;;;4.95;;
13040;SDS011;6587;42.728;23.288;2023-08-21T13:00:24;6.43;;;4.85;;
13040;SDS011;6587;42.728;23.288;2023-08-21T13:02:51;7.28;;;5.00;;
13040;SDS011;6587;42.728;23.288;2023-08-21T13:05:19;7.28;;;5.38;;
13040;SDS011;6587;42.728;23.288;2023-08-21T13:07:45;6.63;;;4.85;;
13040;SDS011;6587;42.728;23.288;2023-08-21T13:10:12;7.22;;;5.50;;
13040;SDS011;6587;42.728;23.288;2023-08-21T13:12:39;6.85;;;5.13;;
13040;SDS011;6587;42.728;23.288;2023-08-21T13:15:06;8.02;;;5.15;;
13040;SDS011;6587;42.728;23.288;2023-08-21T13:17:33;5.80;;;4.80;;
13040;SDS011;6587;42.728;23.288;2023-08-21T13:20:00;6.85;;;5.10;;
13040;SDS011;6587;42.728;23.288;2023-08-21T13:22:28;9.90;;;5.10;;
13040;SDS011;6587;42.728;23.288;2023-08-21T13:24:54;8.07;;;5.10;;
13040;SDS011;6587;42.728;23.288;2023-08-21T13:27:21;6.43;;;5.75;;
13040;SDS011;6587;42.728;23.288;2023-08-21T13:29:47;5.95;;;5.05;;
13040;SDS011;6587;42.728;23.288;2023-08-21T13:32:14;8.40;;;5.18;;
13040;SDS011;6587;42.728;23.288;2023-08-21T13:34:40;5.55;;;4.80;;
13040;SDS011;6587;42.728;23.288;2023-08-21T13:37:07;6.80;;;5.13;;
13040;SDS011;6587;42.728;23.288;2023-08-21T13:39:35;8.02;;;5.32;;
13040;SDS011;6587;42.728;23.288;2023-08-21T13:42:02;7.18;;;5.50;;
13040;SDS011;6587;42.728;23.288;2023-08-21T13:44:28;8.15;;;5.63;;
13040;SDS011;6587;42.728;23.288;2023-08-21T13:46:55;5.93;;;5.30;;
13040;SDS011;6587;42.728;23.288;2023-08-21T13:49:21;7.03;;;4.95;;
13040;SDS011;6587;42.728;23.288;2023-08-21T13:51:48;6.70;;;5.80;;
13040;SDS011;6587;42.728;23.288;2023-08-21T13:54:15;7.93;;;5.68;;
13040;SDS011;6587;42.728;23.288;2023-08-21T13:56:43;7.20;;;5.20;;
13040;SDS011;6587;42.728;23.288;2023-08-21T13:59:10;6.05;;;5.30;;
13040;SDS011;6587;42.728;23.288;2023-08-21T14:01:36;5.47;;;4.63;;
13040;SDS011;6587;42.728;23.288;2023-08-21T14:04:03;9.15;;;5.40;;
13040;SDS011;6587;42.728;23.288;2023-08-21T14:06:30;14.38;;;6.07;;
13040;SDS011;6587;42.728;23.288;2023-08-21T14:08:56;9.57;;;5.90;;
13040;SDS011;6587;42.728;23.288;2023-08-21T14:11:23;8.50;;;5.30;;
13040;SDS011;6587;42.728;23.288;2023-08-21T14:13:51;11.55;;;5.40;;
13040;SDS011;6587;42.728;23.288;2023-08-21T14:16:17;6.55;;;5.88;;
13040;SDS011;6587;42.728;23.288;2023-08-21T14:18:44;10.02;;;5.35;;
13040;SDS011;6587;42.728;23.288;2023-08-21T14:21:10;8.02;;;5.40;;
13040;SDS011;6587;42.728;23.288;2023-08-21T14:23:37;10.85;;;5.80;;
13040;SDS011;6587;42.728;23.288;2023-08-21T14:26:04;6.85;;;5.68;;
13040;SDS011;6587;42.728;23.288;2023-08-21T14:28:31;7.20;;;5.65;;
13040;SDS011;6587;42.728;23.288;2023-08-21T14:30:58;8.18;;;5.88;;
13040;SDS011;6587;42.728;23.288;2023-08-21T14:33:25;6.90;;;6.00;;
13040;SDS011;6587;42.728;23.288;2023-08-21T14:35:52;5.70;;;5.20;;
13040;SDS011;6587;42.728;23.288;2023-08-21T14:38:18;6.40;;;5.28;;
13040;SDS011;6587;42.728;23.288;2023-08-21T14:40:45;7.05;;;5.72;;
13040;SDS011;6587;42.728;23.288;2023-08-21T14:43:11;8.52;;;5.90;;